Time;durP1;ratioP1;P1;durP2;ratioP2;P2;SDS_P1;SDS_P2;PMS_P1;PMS_P2;Temp;Humidity;BMP_temperature;BMP_pressure;BME280_temperature;BME280_humidity;BME280_pressure;Samples;Min_cycle;Max_cycle;Signal;HPM_P1;HPM_P2
2022/07/05 00:00:24;;;;;;;1.60;0.40;;;15.50;99.90;;;14.91;100.00;97891.59;5041545;28;20162;-65
2022/07/05 00:02:51;;;;;;;3.65;0.57;;;15.40;99.90;;;15.00;100.00;97898.94;5040336;28;20500;-65
2022/07/05 00:05:18;;;;;;;0.80;0.40;;;15.50;99.90;;;15.00;100.00;97896.31;5038398;28;20055;-66
2022/07/05 00:07:45;;;;;;;2.30;0.50;;;15.50;99.90;;;14.82;100.00;97898.19;5041159;28;20080;-67
2022/07/05 00:10:12;;;;;;;4.47;0.70;;;15.40;99.90;;;14.78;100.00;97899.28;5038433;28;20533;-66
2022/07/05 00:12:39;;;;;;;2.35;0.60;;;15.40;99.90;;;14.85;100.00;97897.19;5041911;28;20120;-67
2022/07/05 00:15:07;;;;;;;1.83;0.50;;;15.30;99.90;;;14.78;100.00;97896.66;5037859;28;20087;-66
2022/07/05 00:17:34;;;;;;;1.65;0.50;;;15.30;99.90;;;14.70;100.00;97893.63;5039985;28;20440;-66
2022/07/05 00:20:02;;;;;;;3.05;0.70;;;15.30;99.90;;;14.64;100.00;97892.19;5040146;28;20855;-65
2022/07/05 00:22:30;;;;;;;2.47;0.60;;;15.20;99.90;;;14.61;100.00;97894.13;5042752;28;20148;-66
2022/07/05 00:24:57;;;;;;;4.93;0.55;;;15.30;99.90;;;14.57;100.00;97893.44;5038660;28;20162;-65
2022/07/05 00:27:23;;;;;;;3.83;0.55;;;15.10;99.90;;;14.62;100.00;97895.81;5040696;28;20170;-66
2022/07/05 00:29:51;;;;;;;1.38;0.47;;;15.10;99.90;;;14.54;100.00;97890.13;5041464;28;20069;-67
2022/07/05 00:32:18;;;;;;;3.40;0.60;;;15.10;99.90;;;14.53;100.00;97891.03;5040728;28;20140;-64
2022/07/05 00:34:45;;;;;;;1.75;0.57;;;15.10;99.90;;;14.41;100.00;97884.69;5040165;28;20065;-65
2022/07/05 00:37:13;;;;;;;1.17;0.50;;;15.10;99.90;;;14.49;100.00;97890.38;5043757;28;20106;-66
2022/07/05 00:39:40;;;;;;;1.48;0.60;;;15.10;99.90;;;14.39;100.00;97887.41;5042972;28;20088;-66
2022/07/05 00:42:07;;;;;;;5.07;0.80;;;15.00;99.90;;;14.33;100.00;97892.94;5040677;28;20496;-66
2022/07/05 00:44:39;;;;;;;1.10;0.40;;;15.00;99.90;;;14.20;100.00;97892.72;5040849;28;20099;-66
2022/07/05 00:47:09;;;;;;;2.42;0.55;;;14.90;99.90;;;14.18;100.00;97897.19;5039386;28;20045;-65
2022/07/05 00:49:37;;;;;;;3.45;0.50;;;14.80;99.90;;;14.22;100.00;97892.66;5039286;28;20044;-66
2022/07/05 00:52:05;;;;;;;5.75;0.63;;;14.80;99.90;;;14.25;100.00;97883.81;5044726;28;20476;-65
2022/07/05 00:54:49;;;;;;;3.38;0.60;;;14.70;99.90;;;14.42;100.00;97891.63;5040621;28;20057;-67
2022/07/05 00:57:19;;;;;;;3.25;0.70;;;14.80;99.90;;;14.26;100.00;97893.34;5039779;28;20515;-66
2022/07/05 00:59:46;;;;;;;5.03;0.70;;;14.80;99.90;;;14.18;100.00;97901.56;5038555;28;20044;-65
2022/07/05 01:02:14;;;;;;;4.68;0.82;;;14.80;99.90;;;14.16;100.00;97893.84;5039254;28;20128;-66
2022/07/05 01:04:48;;;;;;;2.90;0.60;;;14.70;99.90;;;14.03;100.00;97898.00;5036431;28;20107;-66
2022/07/05 01:07:17;;;;;;;3.08;0.60;;;14.70;99.90;;;14.05;100.00;97892.69;5036386;28;20073;-66
2022/07/05 01:09:44;;;;;;;3.08;0.60;;;14.60;99.90;;;14.11;100.00;97892.38;5052075;28;20041;-65
2022/07/05 01:12:11;;;;;;;4.18;0.70;;;14.60;99.90;;;14.11;100.00;97890.59;5040145;28;20531;-67
2022/07/05 01:14:41;;;;;;;2.80;0.70;;;14.60;99.90;;;14.09;100.00;97897.66;5043098;28;20148;-66
2022/07/05 01:17:09;;;;;;;2.20;0.70;;;14.60;99.90;;;14.12;100.00;97892.31;5045562;28;20051;-67
2022/07/05 01:19:37;;;;;;;5.18;0.60;;;14.60;99.90;;;14.21;100.00;97889.22;5041194;28;20163;-66
2022/07/05 01:22:14;;;;;;;3.05;0.55;;;14.70;99.90;;;14.16;100.00;97893.84;5053829;28;20075;-66
2022/07/05 01:24:42;;;;;;;2.97;0.70;;;14.70;99.90;;;13.88;100.00;97891.78;5037716;28;20156;-65
2022/07/05 01:27:09;;;;;;;4.53;0.63;;;14.70;99.90;;;13.63;100.00;97900.00;5056464;28;20045;-65
2022/07/05 01:29:36;;;;;;;2.30;0.60;;;14.60;99.90;;;13.76;100.00;97898.47;5040031;28;20540;-66
2022/07/05 01:32:04;;;;;;;2.40;0.50;;;14.50;99.90;;;13.90;100.00;97891.72;5037875;28;20128;-66
2022/07/05 01:34:31;;;;;;;4.10;0.60;;;14.60;99.90;;;13.74;100.00;97902.91;5040439;28;20476;-66
2022/07/05 01:36:58;;;;;;;2.60;0.50;;;14.50;99.90;;;13.43;100.00;97902.75;5040186;28;20104;-65
2022/07/05 01:39:25;;;;;;;2.90;0.50;;;14.40;99.90;;;13.47;100.00;97905.13;5036576;28;20527;-66
2022/07/05 01:41:52;;;;;;;2.53;0.50;;;14.30;99.90;;;13.33;100.00;97904.97;5039142;28;20050;-66
2022/07/05 01:44:19;;;;;;;1.50;0.60;;;14.30;99.90;;;13.46;100.00;97902.63;5040230;28;20045;-66
2022/07/05 01:46:46;;;;;;;2.78;0.80;;;14.20;99.90;;;13.52;100.00;97900.53;5036710;28;20160;-66
2022/07/05 01:49:17;;;;;;;1.77;0.52;;;14.30;99.90;;;13.46;100.00;97898.25;5046761;28;20136;-67
2022/07/05 01:52:03;;;;;;;3.05;0.40;;;14.20;99.90;;;13.31;100.00;97899.81;5039285;28;20067;-65
2022/07/05 01:54:30;;;;;;;2.83;0.50;;;14.10;99.90;;;13.39;100.00;97908.13;5069865;28;20049;-66
2022/07/05 01:56:58;;;;;;;0.90;0.52;;;14.10;99.90;;;13.50;100.00;97906.75;5041779;28;20107;-67
2022/07/05 01:59:27;;;;;;;3.50;0.68;;;14.00;99.90;;;13.46;100.00;97903.47;5038337;28;20045;-66
2022/07/05 02:01:55;;;;;;;2.80;0.50;;;14.00;99.90;;;13.35;100.00;97909.19;5039015;28;20139;-66
2022/07/05 02:04:22;;;;;;;2.38;0.55;;;14.00;99.90;;;13.30;100.00;97908.56;5040827;28;20640;-66
2022/07/05 02:06:49;;;;;;;3.45;0.80;;;14.00;99.90;;;13.23;100.00;97907.16;5038616;28;20041;-67
2022/07/05 02:09:16;;;;;;;1.30;0.60;;;13.90;99.90;;;13.29;100.00;97903.41;5037340;28;20128;-65
2022/07/05 02:11:43;;;;;;;3.63;0.60;;;13.90;99.90;;;13.16;100.00;97911.81;5037484;28;20052;-67
2022/07/05 02:14:11;;;;;;;2.58;0.63;;;13.80;99.90;;;13.13;100.00;97901.50;5039733;28;20137;-67
2022/07/05 02:16:38;;;;;;;2.00;0.60;;;13.70;99.90;;;13.00;100.00;97907.38;5037341;28;20133;-65
2022/07/05 02:19:05;;;;;;;2.78;0.70;;;13.70;99.90;;;13.04;100.00;97904.56;5033039;28;20049;-66
2022/07/05 02:21:32;;;;;;;2.55;0.70;;;13.70;99.90;;;13.04;100.00;97903.72;5035486;28;20049;-64
2022/07/05 02:23:59;;;;;;;3.50;0.60;;;13.60;99.90;;;13.01;100.00;97907.31;5039066;28;20041;-66
2022/07/05 02:26:26;;;;;;;2.25;0.60;;;13.60;99.90;;;12.72;100.00;97904.28;5039340;28;20088;-65
2022/07/05 02:28:55;;;;;;;1.60;0.70;;;;;;;12.69;100.00;97901.00;5038324;28;20072;-66
2022/07/05 02:31:22;;;;;;;3.85;0.70;;;;;;;12.84;100.00;97908.13;5039155;28;20116;-67
2022/07/05 02:33:49;;;;;;;1.75;0.70;;;13.50;99.90;;;12.79;100.00;97910.06;5035874;28;20389;-66
2022/07/05 02:36:16;;;;;;;2.05;0.63;;;13.50;99.90;;;12.76;100.00;97902.41;5038631;28;20176;-66
2022/07/05 02:38:43;;;;;;;5.10;0.70;;;13.40;99.90;;;12.74;100.00;97906.84;5036652;28;20128;-66
2022/07/05 02:41:12;;;;;;;4.53;0.73;;;;;;;12.64;100.00;97902.97;5034473;28;20146;-66
2022/07/05 02:43:40;;;;;;;2.63;0.70;;;;;;;12.70;100.00;97905.28;5037108;28;20170;-65
2022/07/05 02:46:08;;;;;;;1.00;0.60;;;;;;;12.74;100.00;97906.84;5038471;28;20127;-67
2022/07/05 02:48:38;;;;;;;3.03;0.60;;;;;;;12.75;100.00;97904.19;5037444;28;20060;-66
2022/07/05 02:51:05;;;;;;;4.63;0.70;;;;;;;12.69;100.00;97906.22;5038129;28;20103;-66
2022/07/05 02:53:34;;;;;;;1.55;0.70;;;;;;;12.79;100.00;97912.69;5040363;28;20144;-67
2022/07/05 02:56:01;;;;;;;1.90;0.73;;;;;;;12.68;100.00;97918.41;5036916;28;20057;-63
2022/07/05 02:58:29;;;;;;;2.42;0.70;;;;;;;12.85;100.00;97915.00;5038616;28;20049;-66
2022/07/05 03:00:56;;;;;;;2.97;0.70;;;;;;;12.62;100.00;97916.06;5037476;28;20128;-66
2022/07/05 03:03:24;;;;;;;4.65;0.90;;;;;;;12.62;100.00;97915.22;5033386;28;20147;-65
2022/07/05 03:05:51;;;;;;;5.05;1.00;;;;;;;12.69;100.00;97917.47;5038112;28;20125;-66
2022/07/05 03:08:19;;;;;;;1.40;0.60;;;;;;;12.54;100.00;97910.34;5036099;28;20136;-66
2022/07/05 03:10:47;;;;;;;2.13;0.70;;;;;;;12.60;100.00;97906.63;5036513;28;20128;-66
2022/07/05 03:13:14;;;;;;;1.33;0.70;;;;;;;12.49;100.00;97912.31;5040038;28;20052;-65
2022/07/05 03:15:42;;;;;;;1.10;0.60;;;;;;;12.33;100.00;97909.56;5036762;28;20393;-66
2022/07/05 03:18:10;;;;;;;1.88;0.60;;;;;;;12.06;100.00;97911.59;5040594;28;20431;-65
2022/07/05 03:20:37;;;;;;;2.45;0.65;;;;;;;12.07;100.00;97916.75;5033798;28;20055;-66
2022/07/05 03:23:05;;;;;;;1.63;0.60;;;;;;;12.14;100.00;97919.94;5039774;28;20139;-66
2022/07/05 03:25:32;;;;;;;4.07;0.60;;;;;;;12.19;100.00;97925.78;5037133;28;20091;-65
2022/07/05 03:27:59;;;;;;;1.67;0.60;;;;;;;12.10;100.00;97926.19;5037801;28;20511;-66
2022/07/05 03:30:27;;;;;;;1.85;0.60;;;;;;;12.12;100.00;97922.59;5038577;28;20049;-65
2022/07/05 03:32:54;;;;;;;1.52;0.70;;;;;;;12.26;100.00;97919.38;5034149;28;20057;-65
2022/07/05 03:35:22;;;;;;;5.75;1.10;;;;;;;12.26;100.00;97929.78;5032984;28;20484;-66
2022/07/05 03:37:49;;;;;;;3.63;0.80;;;;;;;12.43;100.00;97929.06;5036558;28;20053;-66
2022/07/05 03:40:16;;;;;;;2.30;0.52;;;;;;;12.52;100.00;97933.00;5038927;28;20060;-64
2022/07/05 03:42:44;;;;;;;1.95;0.52;;;;;;;12.48;100.00;97934.91;5035572;28;20586;-66
2022/07/05 03:45:11;;;;;;;4.00;0.70;;;;;;;12.41;100.00;97925.69;5046147;28;20047;-67
2022/07/05 03:47:38;;;;;;;1.92;0.70;;;13.00;99.90;;;12.27;100.00;97928.91;5030973;28;20052;-66
2022/07/05 03:50:06;;;;;;;2.00;0.40;;;12.90;99.90;;;12.51;100.00;97929.56;5033571;28;20508;-66
2022/07/05 03:52:33;;;;;;;4.40;0.75;;;12.90;99.90;;;12.27;100.00;97931.50;5039220;28;20045;-66
2022/07/05 03:55:00;;;;;;;2.75;0.77;;;12.90;99.90;;;12.37;100.00;97938.91;5037226;28;20049;-64
2022/07/05 03:57:27;;;;;;;2.97;0.77;;;12.90;99.90;;;12.47;100.00;97942.78;5037257;28;20044;-66
2022/07/05 03:59:55;;;;;;;4.05;0.75;;;12.90;99.90;;;12.49;100.00;97949.59;5035474;28;20740;-65
2022/07/05 04:02:22;;;;;;;4.20;0.70;;;12.90;99.90;;;12.44;100.00;97954.19;5035332;28;20168;-67
2022/07/05 04:04:49;;;;;;;3.75;0.80;;;13.00;99.90;;;12.66;100.00;97953.25;5038743;28;20568;-66
2022/07/05 04:07:16;;;;;;;2.83;0.70;;;13.00;99.90;;;12.38;100.00;97958.81;5036528;28;20571;-66
2022/07/05 04:09:43;;;;;;;1.95;0.73;;;13.00;99.90;;;12.39;100.00;97957.91;5038109;28;20591;-65
2022/07/05 04:12:11;;;;;;;1.65;0.57;;;13.00;99.90;;;12.48;100.00;97965.31;5036762;28;20055;-65
2022/07/05 04:14:37;;;;;;;2.10;0.70;;;13.10;99.90;;;12.33;100.00;97956.41;5036648;28;20049;-67
2022/07/05 04:17:04;;;;;;;4.60;0.80;;;13.10;99.90;;;12.43;100.00;97960.31;5036884;28;20057;-66
2022/07/05 04:19:32;;;;;;;3.35;0.70;;;13.10;99.90;;;12.60;100.00;97959.56;5034696;28;20149;-65
2022/07/05 04:21:59;;;;;;;3.45;0.70;;;13.20;99.90;;;12.63;100.00;97953.34;5038679;28;20057;-68
2022/07/05 04:24:26;;;;;;;2.10;0.80;;;13.30;99.90;;;12.56;100.00;97966.66;5037025;28;20053;-67
2022/07/05 04:26:53;;;;;;;1.92;0.80;;;13.30;99.90;;;12.70;100.00;97967.78;5034645;28;20045;-67
2022/07/05 04:29:19;;;;;;;1.52;0.60;;;13.40;99.90;;;12.79;100.00;97961.31;5039332;28;20479;-67
2022/07/05 04:31:46;;;;;;;2.13;0.60;;;13.40;99.90;;;12.58;100.00;97963.16;5037214;28;20142;-67
2022/07/05 04:34:13;;;;;;;1.98;0.73;;;13.50;99.90;;;12.73;100.00;97954.66;5036567;28;20049;-66
2022/07/05 04:36:40;;;;;;;1.48;0.65;;;13.50;99.90;;;12.97;100.00;97963.94;5037035;28;20128;-65
2022/07/05 04:39:08;;;;;;;5.78;1.23;;;13.60;99.90;;;13.08;100.00;97962.59;5038468;28;20132;-66
2022/07/05 04:41:35;;;;;;;3.67;0.77;;;13.70;99.90;;;13.08;100.00;97960.84;5040090;28;20092;-67
2022/07/05 04:44:02;;;;;;;2.90;0.70;;;13.90;99.90;;;13.17;100.00;97960.41;5036384;28;20182;-66
2022/07/05 04:46:29;;;;;;;3.83;0.70;;;13.90;99.90;;;13.27;100.00;97965.19;5034408;28;20128;-67
2022/07/05 04:48:57;;;;;;;6.78;0.70;;;14.00;99.90;;;13.30;100.00;97973.75;5042420;28;20042;-67
2022/07/05 04:51:24;;;;;;;2.15;0.70;;;14.10;99.90;;;13.49;100.00;97970.25;5032371;28;20535;-67
2022/07/05 04:53:51;;;;;;;2.60;0.80;;;14.20;99.90;;;13.46;100.00;97967.81;5042849;28;20049;-66
2022/07/05 04:56:18;;;;;;;4.43;0.68;;;14.30;99.90;;;13.49;100.00;97972.88;5037543;28;20131;-65
2022/07/05 04:58:45;;;;;;;4.00;0.98;;;14.40;99.90;;;13.71;100.00;97968.31;5029857;28;20132;-67
2022/07/05 05:01:12;;;;;;;3.15;0.68;;;14.50;99.90;;;13.73;100.00;97965.59;5041992;28;20080;-67
2022/07/05 05:03:39;;;;;;;1.50;0.63;;;14.60;99.90;;;13.96;100.00;97967.94;5041476;28;20057;-66
2022/07/05 05:06:06;;;;;;;1.67;0.68;;;14.70;99.90;;;14.26;100.00;97969.06;5038602;28;20041;-66
2022/07/05 05:08:33;;;;;;;5.90;1.00;;;14.80;99.90;;;14.29;100.00;97971.53;5039090;28;20064;-66
2022/07/05 05:11:00;;;;;;;1.55;0.70;;;15.00;99.90;;;14.42;100.00;97967.34;5041494;28;20061;-66
2022/07/05 05:13:27;;;;;;;1.92;0.50;;;15.20;99.90;;;14.58;100.00;97963.03;5042032;28;20128;-67
2022/07/05 05:15:54;;;;;;;3.40;0.70;;;15.30;99.90;;;14.71;100.00;97967.63;5038661;28;20535;-67
2022/07/05 05:18:25;;;;;;;2.53;0.80;;;15.50;99.90;;;14.81;100.00;97971.44;5042467;28;20132;-66
2022/07/05 05:20:53;;;;;;;2.42;0.70;;;15.60;99.90;;;14.88;100.00;97967.56;5036168;28;20554;-65
2022/07/05 05:23:22;;;;;;;2.15;0.80;;;15.70;99.90;;;15.18;100.00;97972.88;5040880;28;20052;-66
2022/07/05 05:25:49;;;;;;;4.55;0.80;;;15.80;99.90;;;15.11;100.00;97970.72;5041228;28;20155;-65
2022/07/05 05:28:17;;;;;;;8.90;0.80;;;16.00;99.90;;;15.25;100.00;97966.38;5039055;28;20612;-66
2022/07/05 05:30:43;;;;;;;4.88;0.90;;;16.10;99.90;;;15.44;100.00;97971.47;5039865;28;20046;-65
2022/07/05 05:33:10;;;;;;;5.05;1.00;;;16.20;99.90;;;15.55;100.00;97976.06;5041805;28;20088;-66
2022/07/05 05:35:38;;;;;;;1.58;0.60;;;16.30;99.90;;;15.76;100.00;97975.81;5039060;28;20519;-67
2022/07/05 05:38:05;;;;;;;1.52;0.80;;;16.50;99.90;;;15.93;100.00;97977.47;5037471;28;20087;-66
2022/07/05 05:40:37;;;;;;;1.35;0.70;;;16.70;99.90;;;16.21;100.00;97982.78;5039943;28;20073;-66
2022/07/05 05:43:04;;;;;;;3.00;0.70;;;16.90;99.90;;;16.28;100.00;97984.13;5069055;28;20179;-66
2022/07/05 05:45:31;;;;;;;3.55;0.77;;;17.10;99.90;;;16.55;100.00;97983.38;5040252;28;20512;-65
2022/07/05 05:47:59;;;;;;;3.70;0.82;;;17.30;99.90;;;16.99;100.00;97973.75;5041535;28;20107;-66
2022/07/05 05:50:36;;;;;;;3.40;0.70;;;17.60;99.90;;;17.32;100.00;97986.53;5038139;28;20090;-66
2022/07/05 05:53:03;;;;;;;2.70;0.82;;;18.00;99.90;;;17.58;100.00;97974.38;5039538;28;20572;-67
2022/07/05 05:55:31;;;;;;;1.55;0.52;;;18.30;99.90;;;17.81;100.00;97983.41;5042125;28;20087;-64
2022/07/05 05:58:23;;;;;;;5.47;0.80;;;18.50;99.90;;;17.96;100.00;97979.78;5040865;28;20154;-66
2022/07/05 06:00:52;;;;;;;2.58;0.60;;;18.80;99.90;;;18.19;100.00;97977.41;5036901;28;20103;-66
2022/07/05 06:03:21;;;;;;;3.05;0.70;;;19.00;99.90;;;18.24;100.00;97982.34;5037153;28;20141;-66
2022/07/05 06:05:48;;;;;;;5.72;0.82;;;19.20;99.90;;;18.40;100.00;97982.97;5040262;28;20140;-67
2022/07/05 06:08:15;;;;;;;2.38;0.80;;;19.30;99.90;;;18.48;100.00;97985.09;5035607;28;20076;-67
2022/07/05 06:10:43;;;;;;;2.30;0.80;;;19.40;99.90;;;18.65;100.00;97986.56;5042354;28;20133;-65
2022/07/05 06:13:12;;;;;;;2.55;1.10;;;19.50;99.90;;;18.54;100.00;97989.91;5039918;28;20124;-66
2022/07/05 06:15:41;;;;;;;3.45;1.42;;;19.60;99.90;;;18.49;100.00;97995.50;5044263;28;20516;-66
2022/07/05 06:18:10;;;;;;;2.80;1.00;;;19.60;99.90;;;18.74;100.00;97997.28;5039319;28;20569;-66
2022/07/05 06:20:38;;;;;;;5.60;1.10;;;19.60;99.90;;;18.83;100.00;97998.47;5035914;28;20076;-65
2022/07/05 06:23:07;;;;;;;2.97;1.00;;;19.70;99.90;;;18.78;100.00;97997.94;5042371;28;20045;-66
2022/07/05 06:25:34;;;;;;;6.03;1.13;;;19.70;99.90;;;18.78;100.00;98005.84;5034307;28;20081;-68
2022/07/05 06:28:05;;;;;;;3.17;0.90;;;19.70;99.90;;;18.92;100.00;97999.63;5040702;28;20045;-65
2022/07/05 06:30:37;;;;;;;3.22;1.20;;;19.80;99.90;;;19.07;100.00;98001.19;5037011;28;20535;-64
2022/07/05 06:33:04;;;;;;;3.27;1.00;;;20.00;99.90;;;19.03;100.00;98002.34;5040340;28;20158;-66
2022/07/05 06:35:31;;;;;;;4.13;1.02;;;20.20;99.90;;;19.17;100.00;98002.19;5053993;28;20115;-66
2022/07/05 06:38:04;;;;;;;2.17;0.85;;;20.20;99.90;;;19.20;100.00;98002.00;5039240;28;20048;-65
2022/07/05 06:40:42;;;;;;;4.55;1.23;;;20.30;99.90;;;19.12;100.00;98006.97;5045052;28;20471;-66
2022/07/05 06:43:13;;;;;;;2.60;0.88;;;20.30;99.90;;;19.39;100.00;98005.94;5040118;28;20048;-65
2022/07/05 06:45:40;;;;;;;5.93;0.82;;;20.40;99.90;;;19.60;100.00;98003.56;5037320;28;20132;-66
2022/07/05 06:48:09;;;;;;;2.30;0.90;;;20.50;99.90;;;19.71;100.00;98008.09;5038996;28;20151;-66
2022/07/05 06:50:39;;;;;;;4.15;1.05;;;20.60;99.90;;;19.53;100.00;98013.69;5040411;28;20103;-66
2022/07/05 06:53:07;;;;;;;3.30;0.80;;;;;;;19.83;100.00;98015.06;5036889;28;20076;-66
2022/07/05 06:55:34;;;;;;;4.97;1.08;;;20.90;99.90;;;19.88;100.00;98018.22;5036249;28;20124;-67
2022/07/05 06:58:07;;;;;;;2.42;0.80;;;21.00;99.90;;;19.94;100.00;98015.13;5039291;28;20488;-66
2022/07/05 07:00:43;;;;;;;3.88;0.90;;;21.10;99.90;;;20.14;100.00;98015.44;5039553;28;20075;-67
2022/07/05 07:03:30;;;;;;;2.47;0.88;;;21.20;99.90;;;20.23;100.00;98015.59;5037026;28;20057;-67
2022/07/05 07:06:17;;;;;;;2.72;0.75;;;21.30;99.90;;;20.50;100.00;98018.88;5038092;28;20558;-67
2022/07/05 07:11:33;;;;;;;1.92;0.60;;;21.70;99.90;;;20.91;100.00;98014.91;5037182;28;20501;-66
2022/07/05 07:14:00;;;;;;;2.95;0.80;;;21.80;99.90;;;20.39;100.00;98017.06;5037524;28;20132;-66
2022/07/05 07:16:27;;;;;;;3.25;0.70;;;21.90;99.90;;;20.85;100.00;98017.06;5041103;28;20083;-65
2022/07/05 07:18:55;;;;;;;3.63;0.85;;;22.00;99.90;;;20.90;100.00;98014.06;5037644;28;20057;-67
2022/07/05 07:21:41;;;;;;;3.00;0.88;;;22.10;99.90;;;20.81;100.00;98023.53;5039928;28;20095;-66
2022/07/05 07:24:08;;;;;;;4.80;0.88;;;22.10;99.90;;;20.73;100.00;98022.44;5041758;28;20049;-66
2022/07/05 07:29:21;;;;;;;3.35;0.88;;;22.10;99.90;;;21.37;100.00;98032.38;5037900;28;20037;-67
2022/07/05 07:31:48;;;;;;;5.00;0.80;;;22.30;99.90;;;21.67;100.00;98032.63;5037164;28;20088;-66
2022/07/05 07:34:15;;;;;;;3.47;0.70;;;22.50;99.90;;;21.75;100.00;98032.00;5037437;28;20061;-67
2022/07/05 07:36:42;;;;;;;3.35;0.60;;;22.70;99.90;;;21.88;100.00;98032.69;5034233;28;20084;-66
2022/07/05 07:39:09;;;;;;;3.60;0.70;;;22.80;99.90;;;21.97;100.00;98043.47;5033826;28;20144;-67
2022/07/05 07:41:36;;;;;;;1.95;0.60;;;22.90;99.90;;;21.96;100.00;98039.13;5037875;28;20045;-66
2022/07/05 07:44:03;;;;;;;4.00;0.70;;;22.90;99.90;;;22.08;100.00;98038.97;5038943;28;20431;-66
2022/07/05 07:46:30;;;;;;;3.40;0.57;;;23.00;99.90;;;22.04;100.00;98039.34;5038198;28;20103;-66
2022/07/05 07:48:58;;;;;;;2.40;0.55;;;23.10;99.60;;;22.24;100.00;98038.59;5037157;28;20053;-65
2022/07/05 07:51:25;;;;;;;2.58;0.60;;;23.20;99.90;;;22.31;100.00;98042.38;5035636;28;20166;-66
2022/07/05 07:53:52;;;;;;;4.60;0.80;;;23.30;99.70;;;21.99;100.00;98046.84;5035933;28;20053;-66
2022/07/05 07:56:27;;;;;;;6.18;0.60;;;23.30;99.40;;;22.11;100.00;98049.28;5040348;28;20158;-66
2022/07/05 07:58:54;;;;;;;2.63;0.60;;;23.30;98.30;;;22.17;100.00;98053.25;5040769;28;20147;-67
2022/07/05 08:01:22;;;;;;;3.47;0.60;;;23.20;97.40;;;22.44;100.00;98042.22;5037652;28;20045;-66
2022/07/05 08:03:49;;;;;;;2.05;0.57;;;23.30;98.70;;;22.38;100.00;98039.25;5036975;28;20136;-66
2022/07/05 08:06:17;;;;;;;2.63;0.40;;;23.40;98.10;;;22.41;100.00;98041.63;5034594;28;20136;-67
2022/07/05 08:08:45;;;;;;;2.67;0.50;;;23.40;97.30;;;22.40;100.00;98039.94;5036165;28;20091;-67
2022/07/05 08:11:15;;;;;;;6.85;0.70;;;23.30;96.20;;;22.61;100.00;98042.59;5039014;28;20041;-67
2022/07/05 08:13:42;;;;;;;3.05;0.60;;;23.30;97.00;;;22.40;100.00;98046.06;5037945;28;20532;-67
2022/07/05 08:16:11;;;;;;;4.18;0.70;;;23.30;96.00;;;22.50;100.00;98036.38;5037380;28;20055;-67
2022/07/05 08:21:31;;;;;;;4.07;0.70;;;23.60;97.60;;;22.36;100.00;98047.28;5035246;28;20080;-66
2022/07/05 08:24:11;;;;;;;2.33;0.57;;;23.60;95.40;;;22.59;100.00;98039.25;5035767;28;20053;-67
2022/07/05 08:26:39;;;;;;;3.28;0.60;;;23.50;95.20;;;22.86;100.00;98042.19;5038986;28;20111;-67
2022/07/05 08:29:11;;;;;;;3.75;0.50;;;23.60;95.70;;;22.85;100.00;98029.06;5034407;28;20053;-66
2022/07/05 08:31:45;;;;;;;2.97;0.57;;;23.70;94.80;;;22.87;100.00;98035.06;5035181;28;20584;-66
2022/07/05 08:34:13;;;;;;;4.10;0.60;;;23.80;94.90;;;22.97;100.00;98034.16;5037169;28;20094;-66
2022/07/05 08:36:41;;;;;;;1.35;0.50;;;23.70;95.10;;;22.74;100.00;98035.31;5038085;28;20583;-67
2022/07/05 08:39:09;;;;;;;3.42;0.57;;;23.70;95.10;;;22.97;100.00;98034.16;5037451;28;20082;-67
2022/07/05 08:41:39;;;;;;;2.00;0.60;;;23.80;95.20;;;22.38;100.00;98024.19;5038150;28;20081;-67
2022/07/05 08:44:08;;;;;;;2.78;0.60;;;23.70;95.40;;;22.65;100.00;98033.41;5035098;28;20124;-66
2022/07/05 08:46:40;;;;;;;3.28;0.60;;;23.70;95.60;;;22.42;100.00;98030.91;5036298;28;20400;-67
2022/07/05 08:49:09;;;;;;;3.50;0.70;;;23.70;94.90;;;22.20;100.00;98036.28;5037045;28;20087;-67
2022/07/05 08:51:40;;;;;;;3.47;0.50;;;23.70;94.40;;;22.32;100.00;98027.34;5032466;28;20045;-67
2022/07/05 08:54:12;;;;;;;2.15;0.50;;;23.60;94.70;;;23.00;100.00;98021.66;5044393;28;20330;-66
2022/07/05 08:56:44;;;;;;;1.77;0.50;;;23.80;95.60;;;23.13;100.00;98023.13;5037981;28;20057;-67
2022/07/05 08:59:31;;;;;;;2.15;0.50;;;23.90;94.80;;;22.97;100.00;98028.03;5034678;28;20053;-66
2022/07/05 09:02:00;;;;;;;4.60;0.60;;;24.10;94.20;;;23.11;100.00;98025.06;5035897;28;20053;-65
2022/07/05 09:04:33;;;;;;;2.35;0.70;;;24.20;94.60;;;23.49;100.00;98015.56;5036544;28;20048;-65
2022/07/05 09:07:07;;;;;;;1.65;0.43;;;24.50;94.30;;;24.24;100.00;98018.56;5038068;28;20057;-66
2022/07/05 09:09:43;;;;;;;3.80;0.65;;;25.00;94.50;;;23.80;100.00;98010.19;5035020;28;20128;-65
2022/07/05 09:12:15;;;;;;;2.95;0.50;;;25.40;94.30;;;24.03;100.00;98018.72;5034293;28;20118;-65
2022/07/05 09:14:50;;;;;;;2.08;0.50;;;25.40;93.20;;;24.09;100.00;98019.97;5034231;28;20051;-65
2022/07/05 09:17:17;;;;;;;2.22;0.50;;;25.40;92.80;;;23.45;100.00;98029.22;5037096;28;20061;-66
2022/07/05 09:20:05;;;;;;;2.30;0.50;;;25.50;92.20;;;23.91;100.00;98014.53;5033665;28;20057;-65
2022/07/05 09:22:53;;;;;;;1.98;0.50;;;25.20;92.00;;;25.80;100.00;98021.53;5037254;28;20132;-66
2022/07/05 09:25:28;;;;;;;0.85;0.40;;;25.70;93.40;;;25.46;100.00;98022.16;5033958;28;20070;-67
2022/07/05 09:28:03;;;;;;;1.20;0.40;;;26.30;92.10;;;26.28;100.00;98020.34;5036418;28;20514;-68
2022/07/05 09:30:39;;;;;;;5.50;0.50;;;26.40;91.70;;;25.79;100.00;98022.50;5033484;28;20099;-65
2022/07/05 09:33:14;;;;;;;2.22;0.50;;;26.70;90.90;;;25.20;100.00;98011.41;5053040;28;20511;-65
2022/07/05 09:35:43;;;;;;;1.48;0.40;;;26.50;90.10;;;25.78;100.00;98028.81;5039085;28;20125;-64
2022/07/05 09:38:23;;;;;;;1.98;0.40;;;26.40;87.90;;;26.14;100.00;98023.56;5038012;28;20053;-66
2022/07/05 09:40:55;;;;;;;2.15;0.40;;;26.50;88.80;;;26.36;100.00;98022.22;5037284;28;20168;-66
2022/07/05 09:43:28;;;;;;;3.58;0.40;;;27.00;88.00;;;24.91;100.00;98047.81;5041144;28;20049;-65
2022/07/05 09:45:57;;;;;;;1.65;0.40;;;27.00;84.60;;;24.98;100.00;98025.84;5041153;28;20156;-66
2022/07/05 09:48:26;;;;;;;1.02;0.30;;;26.90;82.70;;;26.54;100.00;98021.38;5041917;28;20124;-66
2022/07/05 09:51:08;;;;;;;5.25;0.40;;;26.70;85.00;;;27.03;100.00;98033.19;5041206;28;20135;-66
2022/07/05 09:53:58;;;;;;;1.13;0.35;;;27.00;84.10;;;25.98;100.00;98031.34;5037776;28;20045;-66
2022/07/05 09:56:29;;;;;;;1.77;0.40;;;26.90;82.00;;;26.69;100.00;98026.00;5038907;28;20132;-65
2022/07/05 09:59:19;;;;;;;1.35;0.40;;;27.10;84.00;;;25.95;100.00;98034.34;5042093;28;20053;-66
2022/07/05 10:01:48;;;;;;;2.45;0.20;;;27.00;82.60;;;27.64;100.00;98020.63;5041965;28;20426;-64
2022/07/05 10:04:16;;;;;;;5.57;0.60;;;27.10;82.80;;;25.85;98.80;98032.56;5035952;28;20049;-64
2022/07/05 10:06:43;;;;;;;1.67;0.38;;;27.30;77.50;;;26.22;97.42;98022.78;5039456;28;20061;-66
2022/07/05 10:09:11;;;;;;;2.30;0.32;;;27.20;76.80;;;26.32;97.48;98030.66;5039205;28;20087;-66
2022/07/05 10:11:44;;;;;;;2.13;0.50;;;27.20;76.70;;;26.43;91.52;98017.94;5041011;28;20049;-66
2022/07/05 10:14:18;;;;;;;2.25;0.40;;;27.00;75.60;;;27.35;91.11;98018.38;5040376;28;20619;-66
2022/07/05 10:16:52;;;;;;;1.63;0.40;;;27.00;75.30;;;28.03;94.11;98011.22;5054164;28;20155;-66
2022/07/05 10:19:21;;;;;;;2.80;0.50;;;27.30;76.70;;;27.50;99.99;98013.25;5045887;28;20053;-65
2022/07/05 10:21:49;;;;;;;2.35;0.40;;;27.80;78.80;;;27.23;100.00;98014.31;5038348;28;20468;-64
2022/07/05 10:24:37;;;;;;;1.63;0.40;;;27.90;79.70;;;28.62;90.88;98016.41;5038903;28;20048;-66
2022/07/05 10:27:07;;;;;;;2.08;0.32;;;27.80;75.60;;;29.12;92.71;98009.97;5037503;28;20057;-65
2022/07/05 10:29:36;;;;;;;1.63;0.45;;;27.90;77.40;;;29.25;91.96;98004.09;5039013;28;20052;-65
2022/07/05 10:32:08;;;;;;;3.08;0.40;;;28.40;76.90;;;30.11;83.55;98015.66;5043283;28;20258;-65
2022/07/05 10:34:36;;;;;;;3.17;0.50;;;;;;;31.23;88.14;98005.06;5035130;28;20041;-66
2022/07/05 10:37:28;;;;;;;2.47;0.40;;;;;;;30.55;85.35;98009.63;5040416;28;20144;-66
2022/07/05 10:39:58;;;;;;;1.85;0.40;;;;;;;29.26;89.85;98011.91;5053077;28;20044;-66